map of HOB home
HOB - Airport
Location
City:  Hobbs, New Mexico, United States
Name:Lea County Regional
ICAO:KHOB
IATA:HOB
FAA LID:HOB

Details
Type:Airport (Part 139 Class I)
Use:Public/Civil
Latitude:3241'15"N (32.687500)
Longitude:10313'02"W (-103.217332)
Datum:WGS 1984
Elevation:3660 ft (1116 m)
Variation:6.68E (WMM2015v2 magnetic declination)
-0.10 annual change
Runways:3
Longest:7398 × 150 ft (2255 × 45.5 m), paved

Time
Time Zone:UTC-7 (DST-6)
Local Time:

Weather
METAR:KHOB 041350Z 23009G15KT 10SM CLR 12/02 A2990
TAF:KHOB 041121Z 0412/0512 24009KT P6SM SCT150
FM042000 22016G24KT P6SM SCT080 SCT150
FM050100 22005KT P6SM SCT080 SCT150

Related Locations
Nearby:
Farthest:RRG: 11220 mi / 18058 km
Plaine Corail [Sir Gatan Duval Airport (Plaine Corail Airport)], Rodrigues Island, MU

Find:

   beyond  
but within

Other Information
Maps:
Delays:
NOTAMs:
Links:
Sources:

  
  • flag of United States
  • flag of New Mexico
  

Airport Diagram

Airport diagram for HOB

Airport diagram PDF from FAA

Sectional Chart

Flight Planning
at skyvector.com

Satellite Image

Google Maps Satellite view

 

Copyright © 2004-2019 Karl L. Swartz. All rights reserved.
The Great Circle Mapper name and logo are trademarks of the Great Circle Mapper.
All other trademarks mentioned herein belong to their respective owners.
Please see credits for attibutions and further copyright information.

  Follow gcmap on Facebook Follow gcmap on Twitter GCmap on LinkedIn

hCard Microformat

Geo Microformat